createdAt,value
2024-01-06T00:00:00.995Z,99110.00
2024-01-06T00:05:04.499Z,99106.84
2024-01-06T00:10:14.056Z,99123.75
2024-01-06T00:15:19.329Z,99119.22
2024-01-06T00:20:22.606Z,99116.19
2024-01-06T00:25:27.405Z,99105.81
2024-01-06T00:30:30.932Z,99110.44
2024-01-06T00:35:34.402Z,99116.28
2024-01-06T00:40:39.274Z,99109.72
2024-01-06T00:45:42.495Z,99110.94
2024-01-06T00:50:45.994Z,99124.16
2024-01-06T00:55:50.770Z,99116.66
2024-01-06T01:00:54.389Z,99119.47
2024-01-06T01:05:59.034Z,99114.53
2024-01-06T01:11:14.099Z,99133.09
2024-01-06T01:16:34.412Z,99132.66
2024-01-06T01:21:41.360Z,99131.53
2024-01-06T01:27:06.050Z,99125.91
2024-01-06T01:32:13.082Z,99140.03
2024-01-06T01:37:30.328Z,99134.41
2024-01-06T01:42:35.638Z,99136.53
2024-01-06T01:47:40.873Z,99134.75
2024-01-06T01:52:45.074Z,99136.53
2024-01-06T01:57:50.115Z,99153.16
2024-01-06T02:02:54.404Z,99153.53
2024-01-06T02:07:58.049Z,99159.22
2024-01-06T02:13:12.301Z,99167.25
2024-01-06T02:18:16.413Z,99176.44
2024-01-06T02:23:23.096Z,99172.09
2024-01-06T02:28:27.191Z,99169.63
2024-01-06T02:33:30.430Z,99169.75
2024-01-06T02:38:35.380Z,99188.00
2024-01-06T02:43:38.688Z,99182.25
2024-01-06T02:48:42.520Z,99186.97
2024-01-06T02:53:47.533Z,99188.19
2024-01-06T02:58:51.346Z,99197.69
2024-01-06T03:03:54.632Z,99203.13
2024-01-06T03:08:59.283Z,99207.03
2024-01-06T03:14:02.680Z,99211.16
2024-01-06T03:19:06.308Z,99208.56
2024-01-06T03:24:11.474Z,99210.19
2024-01-06T03:29:14.737Z,99212.78
2024-01-06T03:34:18.109Z,99213.75
2024-01-06T03:39:22.907Z,99203.38
2024-01-06T03:44:26.586Z,99213.84
2024-01-06T03:49:30.263Z,99223.50
2024-01-06T03:54:35.193Z,99227.41
2024-01-06T03:59:38.552Z,99220.81
2024-01-06T04:04:41.880Z,99217.66
2024-01-06T04:09:47.113Z,99221.56
2024-01-06T04:14:50.430Z,99220.00
2024-01-06T04:19:53.829Z,99222.75
2024-01-06T04:24:58.697Z,99237.53
2024-01-06T04:30:02.156Z,99245.56
2024-01-06T04:35:05.993Z,99253.66
2024-01-06T04:40:12.436Z,99261.91
2024-01-06T04:45:15.806Z,99246.03
2024-01-06T04:50:19.643Z,99249.78
2024-01-06T04:55:24.192Z,99247.53
2024-01-06T05:00:28.086Z,99247.69
2024-01-06T05:05:31.405Z,99250.28
2024-01-06T05:10:36.188Z,99252.16
2024-01-06T05:15:39.479Z,99254.94
2024-01-06T05:20:43.313Z,99254.13
2024-01-06T05:25:48.815Z,99259.41
2024-01-06T05:30:52.106Z,99266.63
2024-01-06T05:35:55.795Z,99272.69
2024-01-06T05:41:01.294Z,99276.22
2024-01-06T05:46:04.835Z,99283.41
2024-01-06T05:51:08.647Z,99295.50
2024-01-06T05:56:13.392Z,99299.03
2024-01-06T06:01:17.979Z,99302.66
2024-01-06T06:06:22.674Z,99306.94
2024-01-06T06:11:27.305Z,99318.00
2024-01-06T06:16:31.287Z,99320.69
2024-01-06T06:21:36.743Z,99327.50
2024-01-06T06:26:42.525Z,99323.03
2024-01-06T06:31:48.004Z,99335.88
2024-01-06T06:36:51.513Z,99353.28
2024-01-06T06:41:56.465Z,99354.31
2024-01-06T06:46:59.959Z,99362.06
2024-01-06T06:52:05.015Z,99375.84
2024-01-06T06:57:09.828Z,99384.19
2024-01-06T07:02:13.232Z,99395.31
2024-01-06T07:07:16.485Z,99389.78
2024-01-06T07:12:21.430Z,99399.25
2024-01-06T07:17:25.113Z,99403.63
2024-01-06T07:22:28.621Z,99412.34
2024-01-06T07:27:33.790Z,99408.38
2024-01-06T07:32:37.799Z,99414.81
2024-01-06T07:37:44.124Z,99430.38
2024-01-06T07:42:49.502Z,99434.16
2024-01-06T07:47:53.012Z,99449.84
2024-01-06T07:52:56.714Z,99449.13
2024-01-06T07:58:01.537Z,99446.91
2024-01-06T08:03:07.364Z,99451.41
2024-01-06T08:08:10.885Z,99461.44
2024-01-06T08:13:16.015Z,99471.06
2024-01-06T08:18:19.882Z,99469.59
2024-01-06T08:23:23.349Z,99491.28
2024-01-06T08:28:28.528Z,99500.22
2024-01-06T08:33:32.014Z,99499.75
2024-01-06T08:38:35.314Z,99512.25
2024-01-06T08:43:40.157Z,99514.50
2024-01-06T08:48:46.332Z,99516.72
2024-01-06T08:53:51.119Z,99513.91
2024-01-06T08:58:56.187Z,99531.44
2024-01-06T09:04:00.827Z,99529.09
2024-01-06T09:09:05.442Z,99541.63
2024-01-06T09:14:12.171Z,99548.91
2024-01-06T09:19:15.531Z,99532.63
2024-01-06T09:24:19.196Z,99544.44
2024-01-06T09:29:28.518Z,99537.09
2024-01-06T09:34:32.725Z,99549.00
2024-01-06T09:39:37.528Z,99560.69
2024-01-06T09:44:44.744Z,99566.19
2024-01-06T09:49:52.923Z,99573.44
2024-01-06T09:54:57.511Z,99574.00
2024-01-06T10:00:02.713Z,99577.09
2024-01-06T10:05:06.792Z,99583.13
2024-01-06T10:10:11.610Z,99581.72
2024-01-06T10:15:16.436Z,99584.88
2024-01-06T10:20:21.480Z,99573.34
2024-01-06T10:25:27.807Z,99571.53
2024-01-06T10:30:36.043Z,99581.09
2024-01-06T10:35:42.531Z,99594.41
2024-01-06T10:40:58.608Z,99585.91
2024-01-06T10:46:06.310Z,99592.50
2024-01-06T10:51:12.417Z,99596.00
2024-01-06T10:56:16.009Z,99599.69
2024-01-06T11:01:26.870Z,99586.72
2024-01-06T11:06:35.853Z,99594.34
2024-01-06T11:11:41.224Z,99594.19
2024-01-06T11:16:46.065Z,99594.66
2024-01-06T11:21:49.578Z,99594.72
2024-01-06T11:32:41.175Z,99580.28
2024-01-06T11:37:56.636Z,99592.28
2024-01-06T11:43:01.836Z,99589.31
2024-01-06T11:48:09.346Z,99583.63
2024-01-06T11:53:15.626Z,99591.06
2024-01-06T11:58:19.411Z,99584.41
2024-01-06T12:03:28.222Z,99585.38
2024-01-06T12:08:32.530Z,99595.25
2024-01-06T12:13:35.773Z,99609.00
2024-01-06T12:18:40.880Z,99608.19
2024-01-06T12:23:44.213Z,99623.59
2024-01-06T12:28:47.878Z,99635.72
2024-01-06T12:33:54.132Z,99633.25
2024-01-06T12:38:59.809Z,99630.69
2024-01-06T12:44:03.423Z,99619.25
2024-01-06T12:49:08.263Z,99633.31
2024-01-06T12:54:12.031Z,99633.63
2024-01-06T12:59:15.509Z,99645.31
2024-01-06T13:04:28.944Z,99654.75
2024-01-06T13:09:32.686Z,99662.16
2024-01-06T13:14:37.288Z,99668.09
2024-01-06T13:19:42.067Z,99659.81
2024-01-06T13:24:45.547Z,99672.31
2024-01-06T13:29:49.947Z,99670.03
2024-01-06T13:34:58.010Z,99682.63
2024-01-06T13:40:01.697Z,99689.91
2024-01-06T13:45:05.445Z,99693.66
2024-01-06T13:50:12.821Z,99706.47
2024-01-06T13:55:16.372Z,99703.59
2024-01-06T14:00:21.841Z,99706.19
2024-01-06T14:05:36.061Z,99727.91
2024-01-06T14:10:40.639Z,99727.31
2024-01-06T14:15:45.306Z,99723.78
2024-01-06T14:20:52.736Z,99742.31
2024-01-06T14:25:56.259Z,99740.78
2024-01-06T14:31:09.023Z,99743.59
2024-01-06T14:36:14.203Z,99754.94
2024-01-06T14:41:17.924Z,99756.34
2024-01-06T14:46:21.609Z,99751.78
2024-01-06T14:51:28.212Z,99761.31
2024-01-06T14:56:32.133Z,99764.75
2024-01-06T15:01:35.734Z,99776.47
2024-01-06T15:06:41.386Z,99790.53
2024-01-06T15:11:47.771Z,99786.50
2024-01-06T15:16:51.530Z,99798.63
2024-01-06T15:21:56.912Z,99796.34
2024-01-06T15:27:00.526Z,99807.44
2024-01-06T15:32:07.033Z,99813.16
2024-01-06T15:37:14.578Z,99813.16
2024-01-06T15:42:17.897Z,99826.91
2024-01-06T15:47:21.700Z,99833.41
2024-01-06T15:52:26.781Z,99834.56
2024-01-06T15:57:34.697Z,99837.88
2024-01-06T16:02:40.236Z,99841.63
2024-01-06T16:07:46.246Z,99842.75
2024-01-06T16:12:49.919Z,99851.66
2024-01-06T16:17:54.031Z,99862.31
2024-01-06T16:22:59.302Z,99865.41
2024-01-06T16:28:02.674Z,99862.59
2024-01-06T16:33:08.684Z,99867.78
2024-01-06T16:38:13.948Z,99862.09
2024-01-06T16:43:17.400Z,99878.88
2024-01-06T16:48:21.616Z,99875.13
2024-01-06T16:53:27.855Z,99898.53
2024-01-06T16:58:31.254Z,99891.63
2024-01-06T17:03:43.100Z,99897.44
2024-01-06T17:08:50.733Z,99900.13
2024-01-06T17:13:54.812Z,99896.34
2024-01-06T17:24:17.689Z,99903.81
2024-01-06T17:29:20.998Z,99910.66
2024-01-06T17:34:25.449Z,99926.63
2024-01-06T17:39:33.690Z,99917.94
2024-01-06T17:44:39.076Z,99926.16
2024-01-06T17:49:43.103Z,99953.81
2024-01-06T17:54:48.322Z,99946.72
2024-01-06T17:59:58.012Z,99960.84
2024-01-06T18:05:07.897Z,99957.69
2024-01-06T18:10:13.208Z,99960.25
2024-01-06T18:15:17.420Z,99969.88
2024-01-06T18:20:23.090Z,99974.97
2024-01-06T18:25:29.471Z,99982.59
2024-01-06T18:30:33.514Z,99987.31
2024-01-06T18:35:37.430Z,99991.56
2024-01-06T18:40:42.608Z,100001.09
2024-01-06T18:45:46.604Z,100006.59
2024-01-06T18:50:50.001Z,100001.91
2024-01-06T18:55:55.534Z,100010.78
2024-01-06T19:01:01.053Z,100030.00
2024-01-06T19:06:08.120Z,100034.06
2024-01-06T19:11:13.905Z,100031.13
2024-01-06T19:16:20.985Z,100044.50
2024-01-06T19:21:24.517Z,100038.59
2024-01-06T19:26:29.163Z,100042.53
2024-01-06T19:31:32.440Z,100058.44
2024-01-06T19:36:35.817Z,100065.97
2024-01-06T19:41:40.693Z,100070.16
2024-01-06T19:46:44.594Z,100065.44
2024-01-06T19:51:53.558Z,100075.56
2024-01-06T19:56:59.034Z,100091.91
2024-01-06T20:02:02.237Z,100084.59
2024-01-06T20:07:08.433Z,100083.38
2024-01-06T20:12:14.035Z,100092.56
2024-01-06T20:17:23.595Z,100101.81
2024-01-06T20:22:28.632Z,100103.91
2024-01-06T20:27:35.264Z,100098.25
2024-01-06T20:32:41.347Z,100096.50
2024-01-06T20:37:51.324Z,100095.94
2024-01-06T20:48:12.466Z,100100.44
2024-01-06T20:53:16.362Z,100100.84
2024-01-06T20:58:20.124Z,100108.53
2024-01-06T21:03:29.251Z,100104.78
2024-01-06T21:08:33.773Z,100101.53
2024-01-06T21:13:37.269Z,100108.19
2024-01-06T21:18:44.361Z,100114.69
2024-01-06T21:23:49.505Z,100121.19
2024-01-06T21:28:53.474Z,100115.72
2024-01-06T21:33:58.181Z,100127.88
2024-01-06T21:39:01.822Z,100130.03
2024-01-06T21:44:05.369Z,100142.94
2024-01-06T21:49:12.280Z,100129.03
2024-01-06T21:54:15.754Z,100146.53
2024-01-06T21:59:19.205Z,100150.00
2024-01-06T22:04:26.445Z,100154.44
2024-01-06T22:09:30.203Z,100159.34
2024-01-06T22:14:33.515Z,100161.53
2024-01-06T22:19:40.280Z,100156.59
2024-01-06T22:24:44.199Z,100152.34
2024-01-06T22:29:47.587Z,100158.25
2024-01-06T22:34:56.801Z,100165.44
2024-01-06T22:40:01.591Z,100170.84
2024-01-06T22:45:05.229Z,100175.13
2024-01-06T22:50:10.855Z,100183.63
2024-01-06T22:55:14.835Z,100183.63
2024-01-06T23:00:29.224Z,100192.50
2024-01-06T23:05:35.483Z,100200.69
2024-01-06T23:10:38.870Z,100201.25
2024-01-06T23:15:42.280Z,100206.66
2024-01-06T23:20:47.375Z,100218.97
2024-01-06T23:25:50.817Z,100225.25
2024-01-06T23:30:54.297Z,100229.03
2024-01-06T23:35:59.025Z,100233.81
2024-01-06T23:41:02.398Z,100239.72
2024-01-06T23:46:06.073Z,100237.31
2024-01-06T23:51:16.981Z,100244.97
2024-01-06T23:56:20.715Z,100251.72
